Time;durP1;ratioP1;P1;durP2;ratioP2;P2;SDS_P1;SDS_P2;PMS_P1;PMS_P2;Temp;Humidity;BMP_temperature;BMP_pressure;BME280_temperature;BME280_humidity;BME280_pressure;Samples;Min_cycle;Max_cycle;Signal;HPM_P1;HPM_P2
2022/12/10 00:01:22;;;;;;;17.15;10.68;;;0.40;99.90;;;;;;488574;243;28024;-65
2022/12/10 00:03:23;;;;;;;16.75;10.48;;;0.50;99.90;;;;;;486982;242;27461;-67
2022/12/10 00:05:24;;;;;;;14.25;10.32;;;0.40;99.90;;;;;;490316;241;27418;-65
2022/12/10 00:07:25;;;;;;;18.20;11.50;;;0.40;99.90;;;;;;488330;241;27450;-65
2022/12/10 00:09:27;;;;;;;18.15;11.02;;;0.30;99.90;;;;;;491344;241;27361;-65
2022/12/10 00:11:28;;;;;;;18.05;11.48;;;0.30;99.90;;;;;;491373;241;27432;-64
2022/12/10 00:13:29;;;;;;;17.85;10.45;;;0.30;99.90;;;;;;491321;241;27402;-67
2022/12/10 00:15:30;;;;;;;23.33;12.23;;;0.20;99.90;;;;;;491354;241;27798;-64
2022/12/10 00:17:32;;;;;;;18.50;11.98;;;0.20;99.90;;;;;;491302;241;27878;-65
2022/12/10 00:19:33;;;;;;;18.35;11.73;;;0.20;99.90;;;;;;490536;240;27444;-64
2022/12/10 00:21:34;;;;;;;21.02;12.68;;;0.20;99.90;;;;;;486674;243;27306;-66
2022/12/10 00:23:35;;;;;;;20.62;11.30;;;0.20;99.90;;;;;;482276;243;27537;-67
2022/12/10 00:25:37;;;;;;;17.35;10.90;;;0.30;99.90;;;;;;489230;243;27580;-65
2022/12/10 00:27:38;;;;;;;18.52;11.45;;;0.30;99.90;;;;;;489866;243;27518;-65
2022/12/10 00:29:39;;;;;;;16.50;10.93;;;0.30;99.90;;;;;;489865;243;27976;-65
2022/12/10 00:31:40;;;;;;;18.08;11.35;;;0.40;99.90;;;;;;489907;243;28008;-65
2022/12/10 00:33:42;;;;;;;17.40;10.23;;;0.40;99.90;;;;;;489874;243;28065;-66
2022/12/10 00:35:43;;;;;;;15.40;9.75;;;0.40;99.90;;;;;;489901;243;27455;-64
2022/12/10 00:37:44;;;;;;;15.88;10.32;;;0.40;99.90;;;;;;489888;243;27500;-65
2022/12/10 00:39:46;;;;;;;14.80;10.80;;;0.40;99.90;;;;;;489869;243;27501;-66
2022/12/10 00:41:47;;;;;;;14.90;10.20;;;0.40;99.90;;;;;;489919;243;27517;-65
2022/12/10 00:43:48;;;;;;;16.02;10.50;;;0.30;99.90;;;;;;489872;243;27525;-65
2022/12/10 00:45:49;;;;;;;18.60;10.35;;;0.30;99.90;;;;;;489831;243;27523;-64
2022/12/10 00:47:51;;;;;;;18.12;11.32;;;0.20;99.90;;;;;;489885;243;28058;-64
2022/12/10 00:49:52;;;;;;;16.58;11.85;;;0.30;99.90;;;;;;489881;243;29168;-69
2022/12/10 00:51:53;;;;;;;16.48;10.15;;;0.30;99.90;;;;;;489912;243;27481;-64
2022/12/10 00:53:54;;;;;;;19.52;11.93;;;0.30;99.90;;;;;;489882;243;27499;-67
2022/12/10 00:55:56;;;;;;;20.62;12.60;;;0.20;99.90;;;;;;489918;243;27466;-65
2022/12/10 00:57:57;;;;;;;19.20;11.60;;;0.20;99.90;;;;;;489850;243;27635;-64
2022/12/10 00:59:58;;;;;;;18.52;11.80;;;0.10;99.90;;;;;;489897;243;27942;-68
2022/12/10 01:01:59;;;;;;;23.15;12.93;;;0.10;99.90;;;;;;489918;243;27486;-64
2022/12/10 01:04:01;;;;;;;18.12;12.30;;;0.10;99.90;;;;;;489724;243;28012;-66
2022/12/10 01:06:02;;;;;;;22.02;13.90;;;0.10;99.90;;;;;;489891;243;28041;-64
2022/12/10 01:08:03;;;;;;;19.92;13.20;;;0.10;99.90;;;;;;489893;243;27615;-64
2022/12/10 01:10:04;;;;;;;20.90;13.20;;;0.10;99.90;;;;;;489932;243;27586;-65
2022/12/10 01:12:06;;;;;;;23.60;13.25;;;0.10;99.90;;;;;;489913;243;27595;-65
2022/12/10 01:14:07;;;;;;;21.42;12.90;;;0.20;99.90;;;;;;489863;243;27537;-65
2022/12/10 01:16:08;;;;;;;21.75;13.60;;;0.10;99.90;;;;;;489870;243;27466;-65
2022/12/10 01:18:09;;;;;;;20.55;12.63;;;0.10;99.90;;;;;;481026;243;28054;-64
2022/12/10 01:20:11;;;;;;;19.02;12.32;;;0.20;99.90;;;;;;477318;249;28055;-67
2022/12/10 01:22:12;;;;;;;16.80;11.45;;;0.20;99.90;;;;;;477270;249;28079;-64
2022/12/10 01:24:13;;;;;;;17.12;11.48;;;0.30;99.90;;;;;;477302;249;27505;-65
2022/12/10 01:26:14;;;;;;;20.40;12.55;;;0.30;99.90;;;;;;477303;248;27492;-64
2022/12/10 01:28:16;;;;;;;21.58;14.13;;;0.20;99.90;;;;;;477296;249;27577;-65
2022/12/10 01:30:17;;;;;;;18.37;11.98;;;0.20;99.90;;;;;;477331;249;27529;-68
2022/12/10 01:32:18;;;;;;;21.65;12.70;;;0.20;99.90;;;;;;477265;249;27487;-65
2022/12/10 01:34:19;;;;;;;20.33;12.37;;;0.10;99.90;;;;;;477321;249;28034;-66
2022/12/10 01:36:21;;;;;;;17.58;11.68;;;0.10;99.90;;;;;;477293;249;29194;-64
2022/12/10 01:38:22;;;;;;;21.55;13.35;;;0.10;99.90;;;;;;477286;249;27502;-64
2022/12/10 01:40:23;;;;;;;19.33;11.98;;;0.10;99.90;;;;;;477308;249;27587;-70
2022/12/10 01:42:24;;;;;;;20.98;12.90;;;0.00;99.90;;;;;;477309;248;27581;-64
2022/12/10 01:44:26;;;;;;;18.98;11.70;;;0.00;99.90;;;;;;477283;249;27513;-65
2022/12/10 01:46:27;;;;;;;19.00;12.63;;;0.10;99.90;;;;;;477307;249;27543;-64
2022/12/10 01:48:28;;;;;;;18.35;11.68;;;0.10;99.90;;;;;;477274;249;27494;-65
2022/12/10 01:50:29;;;;;;;17.92;11.85;;;0.20;99.90;;;;;;477281;249;27980;-68
2022/12/10 01:52:31;;;;;;;20.37;13.20;;;0.10;99.90;;;;;;477267;249;29124;-65
2022/12/10 01:54:32;;;;;;;20.12;12.43;;;0.10;99.90;;;;;;477252;249;27550;-65
2022/12/10 01:56:33;;;;;;;20.62;11.85;;;0.10;99.90;;;;;;477285;249;27519;-64
2022/12/10 01:58:35;;;;;;;21.23;11.73;;;0.10;99.90;;;;;;477248;249;27474;-65
2022/12/10 02:00:36;;;;;;;19.30;12.25;;;0.10;99.90;;;;;;477227;248;27538;-67
2022/12/10 02:02:40;;;;;;;19.80;11.73;;;0.10;99.90;;;;;;477271;249;27541;-65
2022/12/10 02:04:38;;;;;;;16.98;11.85;;;0.10;99.90;;;;;;477193;249;27552;-64
2022/12/10 02:06:40;;;;;;;19.50;13.10;;;0.10;99.90;;;;;;477286;249;28719;-66
2022/12/10 02:08:41;;;;;;;21.40;12.73;;;0.10;99.90;;;;;;477277;249;29023;-65
2022/12/10 02:10:42;;;;;;;21.15;12.82;;;0.10;99.90;;;;;;477249;249;27585;-67
2022/12/10 02:12:43;;;;;;;20.55;12.77;;;0.00;99.90;;;;;;477329;249;27478;-64
2022/12/10 02:14:45;;;;;;;18.17;12.60;;;0.00;99.90;;;;;;477289;249;27511;-65
2022/12/10 02:16:46;;;;;;;22.23;14.60;;;0.10;99.90;;;;;;477314;249;27601;-68
2022/12/10 02:18:47;;;;;;;19.08;12.63;;;0.10;99.90;;;;;;477296;249;27629;-64
2022/12/10 02:20:48;;;;;;;20.98;12.85;;;0.10;99.90;;;;;;477299;249;27914;-66
2022/12/10 02:22:50;;;;;;;19.83;11.80;;;0.20;99.90;;;;;;481376;243;27899;-65
2022/12/10 02:24:51;;;;;;;21.67;12.85;;;0.20;99.90;;;;;;488729;243;29030;-64
2022/12/10 02:26:52;;;;;;;21.40;13.75;;;0.10;99.90;;;;;;484932;242;27660;-68
2022/12/10 02:28:53;;;;;;;27.40;13.05;;;0.10;99.90;;;;;;483730;243;27552;-64
2022/12/10 02:30:56;;;;;;;22.10;13.15;;;0.10;99.90;;;;;;485727;241;27510;-66
2022/12/10 02:32:56;;;;;;;21.70;13.13;;;0.10;99.90;;;;;;482776;246;27421;-64
2022/12/10 02:34:57;;;;;;;21.30;12.75;;;0.00;99.90;;;;;;482848;246;27443;-64
2022/12/10 02:36:58;;;;;;;19.08;11.90;;;0.10;99.90;;;;;;482870;246;27918;-68
2022/12/10 02:39:00;;;;;;;22.60;13.65;;;0.00;99.90;;;;;;482843;246;28922;-64
2022/12/10 02:41:01;;;;;;;23.90;14.20;;;0.00;99.90;;;;;;482858;246;27428;-65
2022/12/10 02:43:02;;;;;;;22.60;13.50;;;0.00;99.90;;;;;;482850;246;27407;-64
2022/12/10 02:45:03;;;;;;;23.02;13.50;;;-0.10;99.90;;;;;;482846;246;27412;-64
2022/12/10 02:47:05;;;;;;;21.65;12.60;;;0.00;99.90;;;;;;482838;245;27447;-68
2022/12/10 02:49:06;;;;;;;19.20;12.50;;;0.00;99.90;;;;;;482844;246;27450;-65
2022/12/10 02:51:07;;;;;;;19.30;12.30;;;0.00;99.90;;;;;;482884;246;27545;-66
2022/12/10 02:53:08;;;;;;;20.80;12.23;;;0.00;99.90;;;;;;484265;242;27896;-66
2022/12/10 02:55:10;;;;;;;26.48;13.45;;;-0.10;99.90;;;;;;487666;242;27904;-65
2022/12/10 02:57:11;;;;;;;20.65;12.40;;;-0.10;99.90;;;;;;487683;241;27394;-68
2022/12/10 02:59:12;;;;;;;19.37;12.70;;;-0.10;99.90;;;;;;488642;242;27522;-64
2022/12/10 03:01:13;;;;;;;20.08;13.05;;;0.00;99.90;;;;;;487060;241;27442;-66
2022/12/10 03:03:15;;;;;;;22.30;13.70;;;-0.10;99.90;;;;;;491375;241;27386;-64
2022/12/10 03:05:16;;;;;;;21.85;11.63;;;-0.10;99.90;;;;;;491344;241;27460;-65
2022/12/10 03:07:17;;;;;;;18.60;11.77;;;-0.10;99.90;;;;;;488068;242;27855;-67
2022/12/10 03:09:19;;;;;;;19.73;13.23;;;0.00;99.90;;;;;;489652;242;27450;-64
2022/12/10 03:11:20;;;;;;;22.17;12.75;;;-0.10;99.90;;;;;;491386;241;27401;-65
2022/12/10 03:13:21;;;;;;;22.45;13.75;;;-0.10;99.90;;;;;;491368;241;27359;-64
2022/12/10 03:15:22;;;;;;;20.55;13.70;;;-0.20;99.90;;;;;;491351;241;27379;-64
2022/12/10 03:17:24;;;;;;;18.98;12.10;;;-0.10;99.90;;;;;;491366;241;27473;-67
2022/12/10 03:19:25;;;;;;;20.70;12.60;;;0.00;99.90;;;;;;491358;241;27857;-64
2022/12/10 03:21:27;;;;;;;17.58;12.70;;;-0.10;99.90;;;;;;491354;241;27942;-65
2022/12/10 03:23:27;;;;;;;22.02;13.30;;;-0.10;99.90;;;;;;490858;241;27424;-65
2022/12/10 03:25:29;;;;;;;19.58;12.80;;;-0.10;99.90;;;;;;486259;243;27355;-64
2022/12/10 03:27:30;;;;;;;27.08;14.75;;;-0.10;99.90;;;;;;487419;242;27451;-67
2022/12/10 03:29:31;;;;;;;20.10;12.63;;;-0.10;99.90;;;;;;488599;242;27603;-64
2022/12/10 03:31:32;;;;;;;20.42;13.13;;;-0.10;99.90;;;;;;487110;241;27377;-65
2022/12/10 03:33:34;;;;;;;20.25;12.77;;;-0.10;99.90;;;;;;490349;241;28611;-64
2022/12/10 03:35:35;;;;;;;21.90;13.20;;;-0.10;99.90;;;;;;487769;242;27560;-65
2022/12/10 03:37:36;;;;;;;22.95;14.20;;;-0.20;99.90;;;;;;485622;243;27499;-66
2022/12/10 03:39:37;;;;;;;20.12;12.48;;;-0.10;99.90;;;;;;487219;242;27414;-64
2022/12/10 03:41:39;;;;;;;22.50;13.27;;;-0.10;99.90;;;;;;491061;242;27394;-65
2022/12/10 03:43:40;;;;;;;18.70;11.52;;;-0.10;99.90;;;;;;491366;241;27362;-64
2022/12/10 03:45:41;;;;;;;21.08;13.05;;;-0.20;99.90;;;;;;491329;241;27862;-64
2022/12/10 03:47:42;;;;;;;18.35;12.13;;;-0.10;99.90;;;;;;491325;241;27885;-67
2022/12/10 03:49:44;;;;;;;19.70;12.37;;;-0.10;99.90;;;;;;491361;241;27339;-65
2022/12/10 03:51:45;;;;;;;18.58;12.05;;;-0.10;99.90;;;;;;491314;241;27392;-65
2022/12/10 03:53:48;;;;;;;18.55;11.82;;;0.00;99.90;;;;;;491327;241;27446;-65
2022/12/10 03:55:47;;;;;;;20.67;12.02;;;0.00;99.90;;;;;;491151;242;27406;-64
2022/12/10 03:57:49;;;;;;;18.92;12.35;;;-0.10;99.90;;;;;;491366;241;27406;-67
2022/12/10 03:59:50;;;;;;;18.83;11.65;;;-0.10;99.90;;;;;;491364;241;27912;-66
2022/12/10 04:01:51;;;;;;;15.20;10.60;;;-0.10;99.90;;;;;;491324;241;27382;-64
2022/12/10 04:03:53;;;;;;;15.07;11.00;;;0.00;99.90;;;;;;491361;241;27383;-70
2022/12/10 04:05:54;;;;;;;17.40;11.65;;;0.00;99.90;;;;;;491354;241;27366;-65
2022/12/10 04:07:55;;;;;;;16.87;11.38;;;-0.10;99.90;;;;;;491345;241;27402;-66
2022/12/10 04:09:56;;;;;;;17.52;11.23;;;0.00;99.90;;;;;;491369;241;27365;-66
2022/12/10 04:11:58;;;;;;;19.62;11.55;;;-0.10;99.90;;;;;;491317;242;27402;-65
2022/12/10 04:16:28;;;;;;;20.08;11.73;;;0.00;99.90;;;;;;491274;242;27441;-65
2022/12/10 04:18:29;;;;;;;21.42;11.85;;;-0.10;99.90;;;;;;491350;241;28021;-68
2022/12/10 04:27:29;;;;;;;19.02;11.82;;;-0.10;99.90;;;;;;491302;242;27423;-64
2022/12/10 04:29:30;;;;;;;19.23;11.70;;;-0.10;99.90;;;;;;491360;241;27489;-64
2022/12/10 04:31:31;;;;;;;20.80;11.60;;;0.00;99.90;;;;;;491325;241;27737;-64
2022/12/10 04:33:32;;;;;;;18.33;11.82;;;-0.10;99.90;;;;;;491335;241;27817;-64
2022/12/10 04:35:34;;;;;;;18.15;12.70;;;0.00;99.90;;;;;;491326;241;27861;-66
2022/12/10 04:37:35;;;;;;;18.75;11.80;;;-0.10;99.90;;;;;;491348;241;27350;-65
2022/12/10 04:39:36;;;;;;;19.62;12.20;;;-0.10;99.90;;;;;;491348;241;27393;-64
2022/12/10 04:41:37;;;;;;;21.08;13.35;;;-0.10;99.90;;;;;;491360;241;27403;-64
2022/12/10 04:43:39;;;;;;;15.57;11.20;;;-0.20;99.90;;;;;;491323;242;27517;-65
2022/12/10 04:45:40;;;;;;;18.55;12.77;;;-0.20;99.90;;;;;;491287;241;27390;-67
2022/12/10 04:47:41;;;;;;;22.45;12.25;;;-0.10;99.90;;;;;;491355;241;27881;-65
2022/12/10 04:49:43;;;;;;;20.50;12.57;;;-0.20;99.90;;;;;;491324;241;27469;-65
2022/12/10 04:51:44;;;;;;;20.45;12.57;;;-0.20;99.90;;;;;;491343;241;27497;-69
2022/12/10 04:53:45;;;;;;;20.45;12.73;;;-0.10;99.90;;;;;;491367;241;27434;-65
2022/12/10 04:55:46;;;;;;;19.40;12.77;;;-0.10;99.90;;;;;;491264;241;27409;-65
2022/12/10 04:57:47;;;;;;;17.87;11.70;;;-0.20;99.90;;;;;;491352;241;27359;-64
2022/12/10 04:59:49;;;;;;;20.50;12.35;;;-0.20;99.90;;;;;;491349;241;27869;-65
2022/12/10 05:01:50;;;;;;;18.17;11.80;;;-0.10;99.90;;;;;;491344;241;28960;-68
2022/12/10 05:03:51;;;;;;;18.60;12.27;;;-0.10;99.90;;;;;;491352;241;27414;-64
2022/12/10 05:05:52;;;;;;;19.12;11.77;;;-0.20;99.90;;;;;;491329;241;27409;-65
2022/12/10 05:07:54;;;;;;;20.65;12.25;;;-0.20;99.90;;;;;;491328;242;27390;-65
2022/12/10 05:09:55;;;;;;;21.92;13.07;;;-0.20;99.90;;;;;;491361;241;27449;-65
2022/12/10 05:11:56;;;;;;;18.95;11.45;;;-0.20;99.90;;;;;;491368;241;27940;-67
2022/12/10 05:13:58;;;;;;;20.33;12.77;;;-0.10;99.90;;;;;;491356;241;28996;-65
2022/12/10 05:15:59;;;;;;;18.20;12.85;;;-0.30;99.90;;;;;;491364;241;27378;-64
2022/12/10 05:18:00;;;;;;;21.62;13.40;;;-0.20;99.90;;;;;;491367;241;27438;-64
2022/12/10 05:20:01;;;;;;;16.98;12.00;;;-0.30;99.90;;;;;;491332;241;27359;-64
2022/12/10 05:24:22;;;;;;;23.35;14.10;;;-0.30;99.90;;;;;;491341;242;27343;-65
2022/12/10 05:26:23;;;;;;;18.90;12.37;;;-0.30;99.90;;;;;;491274;241;27477;-65
2022/12/10 05:28:24;;;;;;;17.73;12.07;;;-0.30;99.90;;;;;;491350;241;28596;-64
2022/12/10 05:30:26;;;;;;;18.87;12.30;;;-0.30;99.90;;;;;;491328;241;27339;-64
2022/12/10 05:32:27;;;;;;;19.45;12.05;;;-0.30;99.90;;;;;;491313;241;27394;-67
2022/12/10 05:34:28;;;;;;;18.45;11.93;;;-0.30;99.90;;;;;;491365;241;27402;-64
2022/12/10 05:36:29;;;;;;;21.37;12.85;;;-0.30;99.90;;;;;;491286;241;27523;-64
2022/12/10 05:38:31;;;;;;;19.67;12.25;;;-0.30;99.90;;;;;;491334;241;27450;-64
2022/12/10 05:40:32;;;;;;;23.65;12.63;;;-0.30;99.90;;;;;;491368;241;27803;-64
2022/12/10 05:42:33;;;;;;;19.35;12.40;;;-0.30;99.90;;;;;;491341;241;27880;-68
2022/12/10 05:44:35;;;;;;;22.33;12.63;;;-0.30;99.90;;;;;;491346;241;27331;-65
2022/12/10 05:46:36;;;;;;;22.80;13.32;;;-0.20;99.90;;;;;;491336;241;27402;-64
2022/12/10 05:48:37;;;;;;;19.48;12.60;;;-0.30;99.90;;;;;;491387;241;27471;-64
2022/12/10 05:50:38;;;;;;;18.27;12.25;;;-0.30;99.90;;;;;;491366;242;27398;-65
2022/12/10 05:52:40;;;;;;;21.75;12.52;;;-0.40;99.90;;;;;;491345;241;27510;-65
2022/12/10 05:54:41;;;;;;;21.62;13.02;;;-0.40;99.90;;;;;;491366;241;27898;-64
2022/12/10 05:56:42;;;;;;;21.65;13.10;;;-0.40;99.90;;;;;;491304;241;29040;-65
2022/12/10 05:58:43;;;;;;;21.85;12.55;;;-0.40;99.90;;;;;;491389;241;27370;-68
2022/12/10 06:00:45;;;;;;;20.15;13.00;;;-0.40;99.90;;;;;;491376;241;27362;-64
2022/12/10 06:02:46;;;;;;;19.35;12.90;;;-0.40;99.90;;;;;;491368;241;27425;-65
2022/12/10 06:04:47;;;;;;;20.05;13.35;;;-0.50;99.90;;;;;;491368;241;27429;-64
2022/12/10 06:06:49;;;;;;;21.95;14.63;;;-0.40;99.90;;;;;;491284;242;27882;-64
2022/12/10 06:08:50;;;;;;;20.67;12.65;;;-0.50;99.90;;;;;;491351;241;27885;-69
2022/12/10 06:10:51;;;;;;;20.45;13.02;;;-0.40;99.90;;;;;;491350;241;27413;-64
2022/12/10 06:12:52;;;;;;;23.00;14.13;;;-0.50;99.90;;;;;;491329;241;27469;-66
2022/12/10 06:14:54;;;;;;;19.65;12.37;;;-0.50;99.90;;;;;;491381;241;27367;-65
2022/12/10 06:16:55;;;;;;;20.52;14.48;;;-0.50;99.90;;;;;;491344;241;27417;-66
2022/12/10 06:18:56;;;;;;;21.73;13.55;;;-0.50;99.90;;;;;;491317;241;27378;-68
2022/12/10 06:20:57;;;;;;;23.67;13.93;;;-0.50;99.90;;;;;;491372;241;27903;-64
2022/12/10 06:22:59;;;;;;;21.45;13.10;;;-0.50;99.90;;;;;;491324;242;27587;-64
2022/12/10 06:25:00;;;;;;;20.50;13.35;;;-0.50;99.90;;;;;;491370;241;27509;-66
2022/12/10 06:27:01;;;;;;;25.85;14.20;;;-0.50;99.90;;;;;;491327;241;27462;-64
2022/12/10 06:29:04;;;;;;;20.27;13.32;;;-0.40;99.90;;;;;;491318;241;27402;-68
2022/12/10 06:31:04;;;;;;;19.67;13.23;;;-0.40;99.90;;;;;;491300;241;27885;-64
2022/12/10 06:33:05;;;;;;;21.87;14.40;;;-0.40;99.90;;;;;;491306;242;27399;-65
2022/12/10 06:35:06;;;;;;;24.45;14.65;;;-0.40;99.90;;;;;;491364;241;27472;-64
2022/12/10 06:37:07;;;;;;;23.10;14.13;;;-0.40;99.90;;;;;;490872;241;27324;-65
2022/12/10 06:39:09;;;;;;;21.85;13.50;;;-0.50;99.90;;;;;;489907;243;27547;-66
2022/12/10 06:41:10;;;;;;;21.60;12.77;;;-0.50;99.90;;;;;;489915;243;27910;-64
2022/12/10 06:43:11;;;;;;;21.27;13.50;;;-0.50;99.90;;;;;;489892;243;27928;-64
2022/12/10 06:45:13;;;;;;;23.25;14.18;;;-0.60;99.90;;;;;;489931;243;27495;-67
2022/12/10 06:47:14;;;;;;;20.45;14.13;;;-0.60;99.90;;;;;;489945;243;27603;-64
2022/12/10 06:49:15;;;;;;;21.15;13.52;;;-0.60;99.90;;;;;;489903;243;27986;-66
2022/12/10 06:51:17;;;;;;;22.30;13.93;;;-0.60;99.90;;;;;;489927;243;29025;-65
2022/12/10 06:53:18;;;;;;;22.45;13.27;;;-0.60;99.90;;;;;;489886;243;27483;-64
2022/12/10 06:55:19;;;;;;;21.95;13.00;;;-0.60;99.90;;;;;;489957;243;27577;-68
2022/12/10 06:57:20;;;;;;;22.20;12.90;;;-0.50;99.90;;;;;;489738;240;27538;-64
2022/12/10 06:59:22;;;;;;;20.90;12.07;;;-0.50;99.90;;;;;;489857;242;27561;-65
2022/12/10 07:01:25;;;;;;;18.90;11.93;;;-0.60;99.90;;;;;;486846;241;27998;-67
2022/12/10 07:03:24;;;;;;;21.20;12.75;;;-0.50;99.90;;;;;;489556;243;29038;-65
2022/12/10 07:05:26;;;;;;;18.02;12.10;;;-0.60;99.90;;;;;;487263;243;27452;-65
2022/12/10 07:07:27;;;;;;;19.77;12.37;;;-0.50;99.90;;;;;;490054;242;27386;-65
2022/12/10 07:09:28;;;;;;;21.08;12.85;;;-0.50;99.90;;;;;;491178;241;27359;-65
2022/12/10 07:11:30;;;;;;;19.25;12.10;;;-0.50;99.90;;;;;;491360;241;27489;-67
2022/12/10 07:13:31;;;;;;;19.40;12.95;;;-0.60;99.90;;;;;;491341;241;27418;-64
2022/12/10 07:15:32;;;;;;;19.58;12.60;;;-0.60;99.90;;;;;;491321;241;27945;-64
2022/12/10 07:17:33;;;;;;;18.48;10.93;;;-0.60;99.90;;;;;;491354;241;27947;-64
2022/12/10 07:19:34;;;;;;;18.60;11.93;;;-0.50;99.90;;;;;;491305;241;27354;-64
2022/12/10 07:21:36;;;;;;;19.30;12.77;;;-0.50;99.90;;;;;;491355;241;27482;-66
2022/12/10 07:23:37;;;;;;;18.30;12.73;;;-0.50;99.90;;;;;;490181;240;27470;-64
2022/12/10 07:25:38;;;;;;;18.30;11.75;;;-0.60;99.90;;;;;;487823;242;27498;-65
2022/12/10 07:27:39;;;;;;;18.30;12.15;;;-0.50;99.90;;;;;;487872;242;28445;-68
2022/12/10 07:29:41;;;;;;;20.17;11.75;;;-0.50;99.90;;;;;;490573;242;27924;-64
2022/12/10 07:31:42;;;;;;;17.25;11.40;;;-0.50;99.90;;;;;;477371;241;27505;-68
2022/12/10 07:33:43;;;;;;;21.42;11.80;;;-0.50;99.90;;;;;;477262;248;27483;-64
2022/12/10 07:35:45;;;;;;;17.37;11.50;;;-0.50;99.90;;;;;;477235;248;27529;-67
2022/12/10 07:37:46;;;;;;;18.25;11.23;;;-0.40;99.90;;;;;;477300;248;27659;-67
2022/12/10 07:39:47;;;;;;;17.75;11.43;;;-0.40;99.90;;;;;;477298;248;27966;-64
2022/12/10 07:41:50;;;;;;;15.77;10.70;;;-0.50;99.90;;;;;;477251;248;29095;-65
2022/12/10 07:43:50;;;;;;;15.98;10.95;;;-0.40;99.90;;;;;;477199;249;27541;-64
2022/12/10 07:45:51;;;;;;;18.90;11.85;;;-0.30;99.90;;;;;;477254;248;27512;-66
2022/12/10 07:47:52;;;;;;;16.15;10.80;;;-0.40;99.90;;;;;;477170;248;27672;-68
2022/12/10 07:49:53;;;;;;;17.67;10.77;;;-0.40;99.90;;;;;;477288;248;27521;-65
2022/12/10 07:51:55;;;;;;;15.95;10.27;;;-0.30;99.90;;;;;;477243;248;27535;-66
2022/12/10 07:53:56;;;;;;;15.10;10.45;;;-0.30;99.90;;;;;;482445;240;27932;-65
2022/12/10 07:55:57;;;;;;;14.63;9.82;;;-0.20;99.90;;;;;;489874;241;27487;-65
2022/12/10 07:57:58;;;;;;;17.20;11.00;;;-0.20;99.90;;;;;;489002;243;27494;-68
2022/12/10 08:00:00;;;;;;;18.33;11.43;;;-0.20;99.90;;;;;;488304;242;27386;-65
2022/12/10 08:02:01;;;;;;;16.50;11.88;;;-0.20;99.90;;;;;;491301;241;27485;-66
2022/12/10 08:04:02;;;;;;;17.95;11.50;;;-0.20;99.90;;;;;;490732;241;27387;-66
2022/12/10 08:06:03;;;;;;;20.05;12.68;;;-0.20;99.90;;;;;;486600;241;27938;-65
2022/12/10 08:08:05;;;;;;;21.27;13.35;;;-0.30;99.90;;;;;;491301;241;27942;-67
2022/12/10 08:10:06;;;;;;;17.00;11.63;;;-0.20;99.90;;;;;;491342;241;27453;-65
2022/12/10 08:12:07;;;;;;;18.33;12.23;;;-0.20;99.90;;;;;;491301;241;27402;-65
2022/12/10 08:14:08;;;;;;;16.92;11.75;;;-0.10;99.90;;;;;;491347;241;27445;-65
2022/12/10 08:16:10;;;;;;;17.37;10.38;;;-0.10;99.90;;;;;;491320;241;27398;-64
2022/12/10 08:18:11;;;;;;;14.13;10.32;;;0.00;99.90;;;;;;491299;241;27484;-68
2022/12/10 08:20:13;;;;;;;16.05;11.12;;;0.10;99.90;;;;;;490730;241;27815;-65
2022/12/10 08:22:13;;;;;;;13.90;9.88;;;0.10;99.90;;;;;;491303;241;27981;-65
2022/12/10 08:24:15;;;;;;;14.68;10.60;;;0.00;99.90;;;;;;491324;241;27350;-64
2022/12/10 08:26:16;;;;;;;14.70;10.05;;;0.10;99.90;;;;;;488411;241;27482;-65
2022/12/10 08:28:17;;;;;;;16.80;10.93;;;0.10;99.90;;;;;;485706;245;27925;-66
2022/12/10 08:30:19;;;;;;;16.50;10.40;;;0.10;99.90;;;;;;485831;245;27530;-65
2022/12/10 08:32:20;;;;;;;13.20;10.38;;;0.00;99.90;;;;;;485833;245;27904;-65
2022/12/10 08:34:21;;;;;;;17.10;11.00;;;-0.20;99.90;;;;;;485807;245;27909;-68
2022/12/10 08:36:23;;;;;;;16.90;11.88;;;-0.10;99.90;;;;;;485831;245;27850;-64
2022/12/10 08:38:24;;;;;;;15.98;11.77;;;-0.20;99.90;;;;;;485784;245;27419;-66
2022/12/10 08:40:25;;;;;;;14.63;10.85;;;-0.10;99.90;;;;;;485405;238;27518;-64
2022/12/10 08:42:26;;;;;;;19.48;11.98;;;0.00;99.90;;;;;;484617;243;27439;-66
2022/12/10 08:44:28;;;;;;;15.95;11.32;;;-0.10;99.90;;;;;;489652;243;27503;-66
2022/12/10 08:46:29;;;;;;;16.12;12.10;;;-0.10;99.90;;;;;;489830;243;28066;-65
2022/12/10 08:48:30;;;;;;;16.27;11.70;;;0.00;99.90;;;;;;489198;243;27556;-64
2022/12/10 08:50:31;;;;;;;15.30;10.95;;;-0.10;99.90;;;;;;482864;244;27416;-65
2022/12/10 08:52:33;;;;;;;15.55;9.50;;;0.00;99.90;;;;;;482933;245;27373;-65
2022/12/10 08:54:34;;;;;;;11.98;9.55;;;0.10;99.90;;;;;;482920;244;27871;-66
2022/12/10 08:56:36;;;;;;;13.65;10.10;;;0.10;99.90;;;;;;482813;244;28836;-68
2022/12/10 08:58:37;;;;;;;14.43;9.80;;;0.00;99.90;;;;;;482907;245;27431;-66
2022/12/10 09:00:38;;;;;;;15.07;10.20;;;0.00;99.90;;;;;;482946;245;27994;-67
2022/12/10 09:02:40;;;;;;;13.40;9.95;;;-0.10;99.90;;;;;;482837;244;27416;-65
2022/12/10 09:04:42;;;;;;;14.70;10.65;;;0.00;99.90;;;;;;482945;244;27911;-65
2022/12/10 09:06:42;;;;;;;13.75;10.00;;;0.00;99.90;;;;;;482868;245;27490;-67
2022/12/10 09:08:43;;;;;;;12.18;9.25;;;0.00;99.90;;;;;;482819;246;27440;-64
2022/12/10 09:10:45;;;;;;;13.98;10.10;;;0.00;99.90;;;;;;482962;244;27495;-64
2022/12/10 09:12:46;;;;;;;13.52;9.40;;;0.10;99.90;;;;;;482885;246;27955;-70
2022/12/10 09:14:47;;;;;;;14.87;10.50;;;0.10;99.90;;;;;;482926;244;29022;-64
2022/12/10 09:16:49;;;;;;;14.68;10.63;;;0.10;99.90;;;;;;482941;244;27422;-68
2022/12/10 09:18:50;;;;;;;12.73;9.15;;;0.10;99.90;;;;;;489751;243;27495;-65
2022/12/10 09:20:51;;;;;;;12.57;8.68;;;0.10;99.90;;;;;;489754;243;27504;-65
2022/12/10 09:22:52;;;;;;;11.40;8.77;;;0.20;99.90;;;;;;489796;243;27519;-69
2022/12/10 09:24:54;;;;;;;10.27;8.10;;;0.30;99.90;;;;;;489761;243;27479;-64
2022/12/10 09:26:55;;;;;;;11.80;9.10;;;0.40;99.90;;;;;;489380;243;27455;-67
2022/12/10 09:31:17;;;;;;;10.10;8.63;;;0.40;99.90;;;;;;478361;247;27534;-67
2022/12/10 09:33:18;;;;;;;12.85;9.60;;;0.40;99.90;;;;;;480527;240;27407;-66
2022/12/10 09:35:19;;;;;;;13.57;9.15;;;0.30;99.90;;;;;;480724;245;28479;-67
2022/12/10 09:37:20;;;;;;;12.80;10.00;;;0.30;99.90;;;;;;480821;245;29084;-65
2022/12/10 09:39:22;;;;;;;14.25;9.68;;;0.30;99.90;;;;;;481035;245;27434;-64
2022/12/10 09:41:23;;;;;;;13.62;9.43;;;0.40;99.90;;;;;;481497;245;27603;-65
2022/12/10 09:43:24;;;;;;;14.80;10.00;;;0.30;99.90;;;;;;481859;245;27958;-64
2022/12/10 09:45:26;;;;;;;12.68;9.48;;;0.30;99.90;;;;;;481888;245;28090;-64
2022/12/10 09:47:27;;;;;;;13.38;9.70;;;0.40;99.90;;;;;;481908;245;27595;-69
2022/12/10 09:49:28;;;;;;;12.25;9.30;;;0.40;99.90;;;;;;481933;245;27502;-65
2022/12/10 09:51:30;;;;;;;15.02;11.07;;;0.40;99.90;;;;;;481950;245;27543;-65
2022/12/10 09:53:31;;;;;;;14.38;10.55;;;0.30;99.90;;;;;;481919;245;27553;-68
2022/12/10 09:55:32;;;;;;;13.18;9.95;;;0.30;99.90;;;;;;481902;247;27554;-64
2022/12/10 09:57:33;;;;;;;13.85;9.45;;;0.30;99.90;;;;;;481908;245;27567;-64
2022/12/10 09:59:35;;;;;;;11.52;9.50;;;0.40;99.90;;;;;;481723;245;27589;-65
2022/12/10 10:01:36;;;;;;;13.80;9.75;;;0.50;99.90;;;;;;481943;245;28012;-65
2022/12/10 10:03:37;;;;;;;11.55;9.15;;;0.50;99.90;;;;;;481946;245;28062;-68
2022/12/10 10:05:38;;;;;;;11.60;9.05;;;0.60;99.90;;;;;;481845;245;28019;-63
2022/12/10 10:07:40;;;;;;;12.98;9.40;;;0.60;99.90;;;;;;481930;245;27546;-65
2022/12/10 10:09:41;;;;;;;12.23;8.98;;;0.60;99.90;;;;;;481857;245;27513;-64
2022/12/10 10:11:42;;;;;;;12.73;10.40;;;0.70;99.90;;;;;;481850;245;27655;-65
2022/12/10 10:13:43;;;;;;;13.95;10.13;;;0.50;99.90;;;;;;481905;245;27533;-67
2022/12/10 10:15:45;;;;;;;13.30;9.50;;;0.40;99.90;;;;;;482541;245;27486;-66
2022/12/10 10:17:46;;;;;;;13.45;9.90;;;0.50;99.90;;;;;;484103;245;27446;-66
2022/12/10 10:19:49;;;;;;;14.35;10.13;;;0.20;99.90;;;;;;468951;253;28020;-65
2022/12/10 10:21:48;;;;;;;16.00;10.02;;;0.30;99.90;;;;;;468861;249;27975;-64
2022/12/10 10:23:50;;;;;;;14.93;10.65;;;0.10;99.90;;;;;;482072;245;27423;-67
2022/12/10 10:25:51;;;;;;;13.75;9.95;;;0.20;99.90;;;;;;479981;242;27485;-65
2022/12/10 10:27:52;;;;;;;13.68;9.90;;;0.40;99.90;;;;;;490175;242;28027;-64
2022/12/10 10:29:54;;;;;;;13.52;9.60;;;0.50;99.90;;;;;;489552;242;27860;-65
2022/12/10 10:31:55;;;;;;;13.20;9.38;;;0.60;99.90;;;;;;482157;246;27475;-65
2022/12/10 10:33:56;;;;;;;12.82;9.63;;;0.70;99.90;;;;;;481126;245;27439;-66